sensor_id;sensor_type;location;lat;lon;timestamp;P1;durP1;ratioP1;P2;durP2;ratioP2
5811;SDS011;2932;52.400;9.558;2022-08-20T00:00:26;3.55;;;1.70;;
5811;SDS011;2932;52.400;9.558;2022-08-20T00:02:58;3.08;;;1.40;;
5811;SDS011;2932;52.400;9.558;2022-08-20T00:05:30;2.55;;;1.42;;
5811;SDS011;2932;52.400;9.558;2022-08-20T00:08:01;1.83;;;1.35;;
5811;SDS011;2932;52.400;9.558;2022-08-20T00:10:28;1.88;;;1.30;;
5811;SDS011;2932;52.400;9.558;2022-08-20T00:12:55;1.67;;;1.35;;
5811;SDS011;2932;52.400;9.558;2022-08-20T00:15:23;2.08;;;1.25;;
5811;SDS011;2932;52.400;9.558;2022-08-20T00:17:55;2.53;;;1.52;;
5811;SDS011;2932;52.400;9.558;2022-08-20T00:20:23;4.15;;;1.52;;
5811;SDS011;2932;52.400;9.558;2022-08-20T00:22:55;2.05;;;1.77;;
5811;SDS011;2932;52.400;9.558;2022-08-20T00:25:22;2.45;;;1.30;;
5811;SDS011;2932;52.400;9.558;2022-08-20T00:27:48;1.60;;;1.08;;
5811;SDS011;2932;52.400;9.558;2022-08-20T00:30:14;2.05;;;1.60;;
5811;SDS011;2932;52.400;9.558;2022-08-20T00:32:50;3.25;;;1.73;;
5811;SDS011;2932;52.400;9.558;2022-08-20T00:35:19;3.03;;;1.27;;
5811;SDS011;2932;52.400;9.558;2022-08-20T00:37:47;1.40;;;1.30;;
5811;SDS011;2932;52.400;9.558;2022-08-20T00:40:14;3.33;;;1.20;;
5811;SDS011;2932;52.400;9.558;2022-08-20T00:42:42;1.98;;;1.30;;
5811;SDS011;2932;52.400;9.558;2022-08-20T00:45:09;2.28;;;1.40;;
5811;SDS011;2932;52.400;9.558;2022-08-20T00:47:35;3.22;;;1.40;;
5811;SDS011;2932;52.400;9.558;2022-08-20T00:50:01;4.07;;;1.85;;
5811;SDS011;2932;52.400;9.558;2022-08-20T00:52:30;2.08;;;1.50;;
5811;SDS011;2932;52.400;9.558;2022-08-20T00:54:56;3.28;;;1.80;;
5811;SDS011;2932;52.400;9.558;2022-08-20T00:57:25;2.60;;;1.77;;
5811;SDS011;2932;52.400;9.558;2022-08-20T00:59:55;2.60;;;1.70;;
5811;SDS011;2932;52.400;9.558;2022-08-20T01:02:22;3.35;;;1.48;;
5811;SDS011;2932;52.400;9.558;2022-08-20T01:04:51;1.95;;;1.60;;
5811;SDS011;2932;52.400;9.558;2022-08-20T01:07:18;2.08;;;1.70;;
5811;SDS011;2932;52.400;9.558;2022-08-20T01:09:48;4.50;;;1.70;;
5811;SDS011;2932;52.400;9.558;2022-08-20T01:12:13;3.00;;;1.83;;
5811;SDS011;2932;52.400;9.558;2022-08-20T01:14:40;3.70;;;1.92;;
5811;SDS011;2932;52.400;9.558;2022-08-20T01:17:10;3.75;;;1.55;;
5811;SDS011;2932;52.400;9.558;2022-08-20T01:19:49;2.65;;;1.65;;
5811;SDS011;2932;52.400;9.558;2022-08-20T01:22:20;3.83;;;1.50;;
5811;SDS011;2932;52.400;9.558;2022-08-20T01:25:55;4.28;;;1.75;;
5811;SDS011;2932;52.400;9.558;2022-08-20T01:28:02;2.10;;;1.48;;
5811;SDS011;2932;52.400;9.558;2022-08-20T01:30:27;2.63;;;1.75;;
5811;SDS011;2932;52.400;9.558;2022-08-20T01:32:54;2.67;;;1.83;;
5811;SDS011;2932;52.400;9.558;2022-08-20T01:35:20;2.97;;;1.80;;
5811;SDS011;2932;52.400;9.558;2022-08-20T01:37:46;2.17;;;1.70;;
5811;SDS011;2932;52.400;9.558;2022-08-20T01:40:12;2.22;;;1.80;;
5811;SDS011;2932;52.400;9.558;2022-08-20T01:42:45;5.28;;;1.75;;
5811;SDS011;2932;52.400;9.558;2022-08-20T01:45:13;1.90;;;1.80;;
5811;SDS011;2932;52.400;9.558;2022-08-20T01:47:38;3.92;;;1.85;;
5811;SDS011;2932;52.400;9.558;2022-08-20T01:50:10;2.00;;;1.90;;
5811;SDS011;2932;52.400;9.558;2022-08-20T01:55:21;2.10;;;1.90;;
5811;SDS011;2932;52.400;9.558;2022-08-20T01:57:46;1.85;;;1.60;;
5811;SDS011;2932;52.400;9.558;2022-08-20T02:00:14;3.75;;;1.85;;
5811;SDS011;2932;52.400;9.558;2022-08-20T02:02:41;3.58;;;2.00;;
5811;SDS011;2932;52.400;9.558;2022-08-20T02:05:07;2.88;;;1.80;;
5811;SDS011;2932;52.400;9.558;2022-08-20T02:07:33;5.05;;;1.90;;
5811;SDS011;2932;52.400;9.558;2022-08-20T02:09:59;3.08;;;1.92;;
5811;SDS011;2932;52.400;9.558;2022-08-20T02:12:25;4.93;;;1.77;;
5811;SDS011;2932;52.400;9.558;2022-08-20T02:14:51;3.75;;;1.65;;
5811;SDS011;2932;52.400;9.558;2022-08-20T02:17:19;3.95;;;1.70;;
5811;SDS011;2932;52.400;9.558;2022-08-20T02:19:50;3.55;;;1.92;;
5811;SDS011;2932;52.400;9.558;2022-08-20T02:24:44;3.42;;;1.80;;
5811;SDS011;2932;52.400;9.558;2022-08-20T02:27:10;2.38;;;2.05;;
5811;SDS011;2932;52.400;9.558;2022-08-20T02:29:36;2.38;;;1.63;;
5811;SDS011;2932;52.400;9.558;2022-08-20T02:32:02;2.00;;;1.77;;
5811;SDS011;2932;52.400;9.558;2022-08-20T02:34:28;3.65;;;1.73;;
5811;SDS011;2932;52.400;9.558;2022-08-20T02:36:53;3.03;;;1.90;;
5811;SDS011;2932;52.400;9.558;2022-08-20T02:39:19;3.38;;;2.10;;
5811;SDS011;2932;52.400;9.558;2022-08-20T02:41:44;2.03;;;1.92;;
5811;SDS011;2932;52.400;9.558;2022-08-20T02:44:10;2.90;;;2.00;;
5811;SDS011;2932;52.400;9.558;2022-08-20T02:46:36;2.33;;;1.95;;
5811;SDS011;2932;52.400;9.558;2022-08-20T02:49:02;4.90;;;2.20;;
5811;SDS011;2932;52.400;9.558;2022-08-20T02:51:28;3.80;;;1.92;;
5811;SDS011;2932;52.400;9.558;2022-08-20T02:53:54;4.00;;;1.95;;
5811;SDS011;2932;52.400;9.558;2022-08-20T02:56:19;2.53;;;2.13;;
5811;SDS011;2932;52.400;9.558;2022-08-20T02:58:45;3.30;;;1.98;;
5811;SDS011;2932;52.400;9.558;2022-08-20T03:01:11;3.58;;;2.40;;
5811;SDS011;2932;52.400;9.558;2022-08-20T03:03:38;4.15;;;2.40;;
5811;SDS011;2932;52.400;9.558;2022-08-20T03:06:05;2.45;;;2.17;;
5811;SDS011;2932;52.400;9.558;2022-08-20T03:08:34;2.85;;;2.25;;
5811;SDS011;2932;52.400;9.558;2022-08-20T03:11:00;3.90;;;2.00;;
5811;SDS011;2932;52.400;9.558;2022-08-20T03:13:25;3.30;;;2.42;;
5811;SDS011;2932;52.400;9.558;2022-08-20T03:15:52;3.80;;;2.30;;
5811;SDS011;2932;52.400;9.558;2022-08-20T03:18:21;6.03;;;2.00;;
5811;SDS011;2932;52.400;9.558;2022-08-20T03:20:48;2.50;;;2.10;;
5811;SDS011;2932;52.400;9.558;2022-08-20T03:23:14;2.92;;;2.03;;
5811;SDS011;2932;52.400;9.558;2022-08-20T03:25:43;3.10;;;2.00;;
5811;SDS011;2932;52.400;9.558;2022-08-20T03:28:09;4.35;;;2.20;;
5811;SDS011;2932;52.400;9.558;2022-08-20T03:30:34;3.08;;;2.10;;
5811;SDS011;2932;52.400;9.558;2022-08-20T03:33:00;2.30;;;2.10;;
5811;SDS011;2932;52.400;9.558;2022-08-20T03:35:26;2.67;;;2.38;;
5811;SDS011;2932;52.400;9.558;2022-08-20T03:37:54;2.67;;;2.13;;
5811;SDS011;2932;52.400;9.558;2022-08-20T03:40:23;2.38;;;2.17;;
5811;SDS011;2932;52.400;9.558;2022-08-20T03:42:52;2.60;;;2.30;;
5811;SDS011;2932;52.400;9.558;2022-08-20T03:45:18;2.42;;;2.22;;
5811;SDS011;2932;52.400;9.558;2022-08-20T03:47:45;1.90;;;1.80;;
5811;SDS011;2932;52.400;9.558;2022-08-20T03:50:10;2.40;;;1.98;;
5811;SDS011;2932;52.400;9.558;2022-08-20T03:52:37;2.95;;;2.00;;
5811;SDS011;2932;52.400;9.558;2022-08-20T03:55:04;3.15;;;1.95;;
5811;SDS011;2932;52.400;9.558;2022-08-20T03:57:31;2.30;;;2.10;;
5811;SDS011;2932;52.400;9.558;2022-08-20T03:59:56;2.30;;;2.10;;
5811;SDS011;2932;52.400;9.558;2022-08-20T04:02:22;2.35;;;2.15;;
5811;SDS011;2932;52.400;9.558;2022-08-20T04:04:49;3.17;;;2.22;;
5811;SDS011;2932;52.400;9.558;2022-08-20T04:07:19;2.58;;;2.30;;
5811;SDS011;2932;52.400;9.558;2022-08-20T04:09:53;3.63;;;2.40;;
5811;SDS011;2932;52.400;9.558;2022-08-20T04:12:20;3.15;;;2.60;;
5811;SDS011;2932;52.400;9.558;2022-08-20T04:14:46;3.63;;;2.88;;
5811;SDS011;2932;52.400;9.558;2022-08-20T04:17:12;2.97;;;2.72;;
5811;SDS011;2932;52.400;9.558;2022-08-20T04:19:38;2.90;;;2.70;;
5811;SDS011;2932;52.400;9.558;2022-08-20T04:22:04;3.38;;;3.00;;
5811;SDS011;2932;52.400;9.558;2022-08-20T04:24:31;4.28;;;2.67;;
5811;SDS011;2932;52.400;9.558;2022-08-20T04:26:58;3.85;;;3.10;;
5811;SDS011;2932;52.400;9.558;2022-08-20T04:29:26;3.08;;;2.78;;
5811;SDS011;2932;52.400;9.558;2022-08-20T04:31:52;3.25;;;2.95;;
5811;SDS011;2932;52.400;9.558;2022-08-20T04:34:17;3.60;;;3.00;;
5811;SDS011;2932;52.400;9.558;2022-08-20T04:36:43;3.97;;;3.15;;
5811;SDS011;2932;52.400;9.558;2022-08-20T04:39:12;3.13;;;2.92;;
5811;SDS011;2932;52.400;9.558;2022-08-20T04:41:38;5.10;;;4.00;;
5811;SDS011;2932;52.400;9.558;2022-08-20T04:44:04;3.95;;;3.65;;
5811;SDS011;2932;52.400;9.558;2022-08-20T04:46:29;4.72;;;4.32;;
5811;SDS011;2932;52.400;9.558;2022-08-20T04:48:56;4.63;;;4.22;;
5811;SDS011;2932;52.400;9.558;2022-08-20T04:51:22;5.00;;;4.22;;
5811;SDS011;2932;52.400;9.558;2022-08-20T04:53:47;4.40;;;4.00;;
5811;SDS011;2932;52.400;9.558;2022-08-20T04:56:13;6.40;;;4.68;;
5811;SDS011;2932;52.400;9.558;2022-08-20T04:58:39;4.28;;;3.70;;
5811;SDS011;2932;52.400;9.558;2022-08-20T05:01:08;4.70;;;4.22;;
5811;SDS011;2932;52.400;9.558;2022-08-20T05:03:38;4.53;;;3.95;;
5811;SDS011;2932;52.400;9.558;2022-08-20T05:06:06;5.13;;;4.10;;
5811;SDS011;2932;52.400;9.558;2022-08-20T05:08:33;5.03;;;4.07;;
5811;SDS011;2932;52.400;9.558;2022-08-20T05:11:00;4.97;;;4.18;;
5811;SDS011;2932;52.400;9.558;2022-08-20T05:13:26;4.68;;;4.28;;
5811;SDS011;2932;52.400;9.558;2022-08-20T05:15:52;4.63;;;4.22;;
5811;SDS011;2932;52.400;9.558;2022-08-20T05:18:19;4.60;;;4.20;;
5811;SDS011;2932;52.400;9.558;2022-08-20T05:20:47;4.88;;;4.47;;
5811;SDS011;2932;52.400;9.558;2022-08-20T05:23:14;5.15;;;4.63;;
5811;SDS011;2932;52.400;9.558;2022-08-20T05:25:41;5.95;;;4.93;;
5811;SDS011;2932;52.400;9.558;2022-08-20T05:28:15;5.72;;;4.68;;
5811;SDS011;2932;52.400;9.558;2022-08-20T05:30:56;6.07;;;5.38;;
5811;SDS011;2932;52.400;9.558;2022-08-20T05:33:24;6.18;;;5.00;;
5811;SDS011;2932;52.400;9.558;2022-08-20T05:35:50;7.15;;;5.13;;
5811;SDS011;2932;52.400;9.558;2022-08-20T05:38:17;4.05;;;3.63;;
5811;SDS011;2932;52.400;9.558;2022-08-20T05:40:44;5.53;;;4.70;;
5811;SDS011;2932;52.400;9.558;2022-08-20T05:43:11;6.82;;;5.50;;
5811;SDS011;2932;52.400;9.558;2022-08-20T05:45:37;4.18;;;3.78;;
5811;SDS011;2932;52.400;9.558;2022-08-20T05:48:05;6.07;;;5.03;;
5811;SDS011;2932;52.400;9.558;2022-08-20T05:50:32;4.60;;;4.20;;
5811;SDS011;2932;52.400;9.558;2022-08-20T05:52:58;4.90;;;4.40;;
5811;SDS011;2932;52.400;9.558;2022-08-20T05:55:25;6.13;;;5.53;;
5811;SDS011;2932;52.400;9.558;2022-08-20T05:57:56;6.07;;;5.47;;
5811;SDS011;2932;52.400;9.558;2022-08-20T06:00:22;5.30;;;4.78;;
5811;SDS011;2932;52.400;9.558;2022-08-20T06:02:48;6.93;;;5.70;;
5811;SDS011;2932;52.400;9.558;2022-08-20T06:05:31;7.55;;;5.40;;
5811;SDS011;2932;52.400;9.558;2022-08-20T06:07:58;6.70;;;5.70;;
5811;SDS011;2932;52.400;9.558;2022-08-20T06:10:23;7.30;;;5.60;;
5811;SDS011;2932;52.400;9.558;2022-08-20T06:12:49;6.03;;;5.05;;
5811;SDS011;2932;52.400;9.558;2022-08-20T06:15:17;5.18;;;4.68;;
5811;SDS011;2932;52.400;9.558;2022-08-20T06:17:43;5.30;;;4.75;;
5811;SDS011;2932;52.400;9.558;2022-08-20T06:20:08;6.50;;;4.78;;
5811;SDS011;2932;52.400;9.558;2022-08-20T06:22:35;5.45;;;4.68;;
5811;SDS011;2932;52.400;9.558;2022-08-20T06:25:00;4.57;;;4.18;;
5811;SDS011;2932;52.400;9.558;2022-08-20T06:27:26;4.95;;;4.45;;
5811;SDS011;2932;52.400;9.558;2022-08-20T06:29:52;5.18;;;4.68;;
5811;SDS011;2932;52.400;9.558;2022-08-20T06:32:18;6.18;;;4.85;;
5811;SDS011;2932;52.400;9.558;2022-08-20T06:34:46;5.40;;;4.85;;
5811;SDS011;2932;52.400;9.558;2022-08-20T06:37:15;5.55;;;4.85;;
5811;SDS011;2932;52.400;9.558;2022-08-20T06:39:42;5.88;;;4.10;;
5811;SDS011;2932;52.400;9.558;2022-08-20T06:42:08;6.75;;;5.28;;
5811;SDS011;2932;52.400;9.558;2022-08-20T06:44:34;5.78;;;5.28;;
5811;SDS011;2932;52.400;9.558;2022-08-20T06:47:00;5.50;;;5.00;;
5811;SDS011;2932;52.400;9.558;2022-08-20T06:49:29;4.65;;;4.25;;
5811;SDS011;2932;52.400;9.558;2022-08-20T06:51:56;5.93;;;4.43;;
5811;SDS011;2932;52.400;9.558;2022-08-20T06:54:21;4.88;;;4.47;;
5811;SDS011;2932;52.400;9.558;2022-08-20T06:56:47;6.30;;;5.70;;
5811;SDS011;2932;52.400;9.558;2022-08-20T06:59:12;7.00;;;6.30;;
5811;SDS011;2932;52.400;9.558;2022-08-20T07:01:38;6.95;;;5.95;;
5811;SDS011;2932;52.400;9.558;2022-08-20T07:04:03;6.18;;;5.28;;
5811;SDS011;2932;52.400;9.558;2022-08-20T07:06:29;5.53;;;5.00;;
5811;SDS011;2932;52.400;9.558;2022-08-20T07:08:55;6.07;;;4.55;;
5811;SDS011;2932;52.400;9.558;2022-08-20T07:11:20;6.20;;;5.60;;
5811;SDS011;2932;52.400;9.558;2022-08-20T07:13:46;7.75;;;5.38;;
5811;SDS011;2932;52.400;9.558;2022-08-20T07:16:13;6.50;;;5.85;;
5811;SDS011;2932;52.400;9.558;2022-08-20T07:18:39;6.13;;;5.53;;
5811;SDS011;2932;52.400;9.558;2022-08-20T07:21:04;7.20;;;6.50;;
5811;SDS011;2932;52.400;9.558;2022-08-20T07:23:30;6.30;;;5.70;;
5811;SDS011;2932;52.400;9.558;2022-08-20T07:25:55;7.65;;;6.20;;
5811;SDS011;2932;52.400;9.558;2022-08-20T07:28:21;7.03;;;6.32;;
5811;SDS011;2932;52.400;9.558;2022-08-20T07:30:49;8.45;;;6.75;;
5811;SDS011;2932;52.400;9.558;2022-08-20T07:33:34;10.27;;;6.97;;
5811;SDS011;2932;52.400;9.558;2022-08-20T07:36:02;7.32;;;6.50;;
5811;SDS011;2932;52.400;9.558;2022-08-20T07:38:29;8.07;;;6.88;;
5811;SDS011;2932;52.400;9.558;2022-08-20T07:40:57;7.38;;;6.68;;
5811;SDS011;2932;52.400;9.558;2022-08-20T07:43:27;6.75;;;6.05;;
5811;SDS011;2932;52.400;9.558;2022-08-20T07:45:54;8.27;;;6.88;;
5811;SDS011;2932;52.400;9.558;2022-08-20T07:48:22;7.75;;;6.97;;
5811;SDS011;2932;52.400;9.558;2022-08-20T07:50:55;8.23;;;7.47;;
5811;SDS011;2932;52.400;9.558;2022-08-20T07:53:22;8.50;;;7.60;;
5811;SDS011;2932;52.400;9.558;2022-08-20T07:55:48;7.63;;;6.10;;
5811;SDS011;2932;52.400;9.558;2022-08-20T07:58:14;5.85;;;5.30;;
5811;SDS011;2932;52.400;9.558;2022-08-20T08:00:43;6.18;;;5.57;;
5811;SDS011;2932;52.400;9.558;2022-08-20T08:03:09;8.40;;;6.95;;
5811;SDS011;2932;52.400;9.558;2022-08-20T08:05:36;6.45;;;5.85;;
5811;SDS011;2932;52.400;9.558;2022-08-20T08:08:07;9.13;;;6.10;;
5811;SDS011;2932;52.400;9.558;2022-08-20T08:10:35;5.68;;;5.18;;
5811;SDS011;2932;52.400;9.558;2022-08-20T08:13:03;5.70;;;5.10;;
5811;SDS011;2932;52.400;9.558;2022-08-20T08:15:31;6.45;;;4.90;;
5811;SDS011;2932;52.400;9.558;2022-08-20T08:18:05;6.13;;;4.70;;
5811;SDS011;2932;52.400;9.558;2022-08-20T08:20:34;5.65;;;4.50;;
5811;SDS011;2932;52.400;9.558;2022-08-20T08:23:02;5.15;;;4.65;;
5811;SDS011;2932;52.400;9.558;2022-08-20T08:25:28;4.60;;;4.20;;
5811;SDS011;2932;52.400;9.558;2022-08-20T08:27:54;6.22;;;4.30;;
5811;SDS011;2932;52.400;9.558;2022-08-20T08:30:19;5.63;;;4.70;;
5811;SDS011;2932;52.400;9.558;2022-08-20T08:32:45;4.72;;;4.20;;
5811;SDS011;2932;52.400;9.558;2022-08-20T08:35:29;4.75;;;4.20;;
5811;SDS011;2932;52.400;9.558;2022-08-20T08:37:56;6.53;;;5.03;;
5811;SDS011;2932;52.400;9.558;2022-08-20T08:40:23;4.30;;;3.90;;
5811;SDS011;2932;52.400;9.558;2022-08-20T08:42:51;6.00;;;5.18;;
5811;SDS011;2932;52.400;9.558;2022-08-20T08:45:22;5.57;;;5.07;;
5811;SDS011;2932;52.400;9.558;2022-08-20T08:47:51;5.18;;;4.78;;
5811;SDS011;2932;52.400;9.558;2022-08-20T08:50:22;5.15;;;4.65;;
5811;SDS011;2932;52.400;9.558;2022-08-20T08:52:51;5.40;;;4.90;;
5811;SDS011;2932;52.400;9.558;2022-08-20T08:55:21;5.85;;;4.57;;
5811;SDS011;2932;52.400;9.558;2022-08-20T08:57:46;5.00;;;4.18;;
5811;SDS011;2932;52.400;9.558;2022-08-20T09:00:15;5.20;;;4.68;;
5811;SDS011;2932;52.400;9.558;2022-08-20T09:03:02;4.65;;;4.22;;
5811;SDS011;2932;52.400;9.558;2022-08-20T09:05:33;5.43;;;4.38;;
5811;SDS011;2932;52.400;9.558;2022-08-20T09:08:01;5.97;;;4.53;;
5811;SDS011;2932;52.400;9.558;2022-08-20T09:10:28;5.13;;;4.47;;
5811;SDS011;2932;52.400;9.558;2022-08-20T09:12:54;5.07;;;4.60;;
5811;SDS011;2932;52.400;9.558;2022-08-20T09:15:19;4.32;;;3.92;;
5811;SDS011;2932;52.400;9.558;2022-08-20T09:17:45;4.25;;;3.85;;
5811;SDS011;2932;52.400;9.558;2022-08-20T09:20:10;4.07;;;3.33;;
5811;SDS011;2932;52.400;9.558;2022-08-20T09:22:36;4.63;;;4.20;;
5811;SDS011;2932;52.400;9.558;2022-08-20T09:25:02;4.18;;;3.78;;
5811;SDS011;2932;52.400;9.558;2022-08-20T09:27:28;4.72;;;4.30;;
5811;SDS011;2932;52.400;9.558;2022-08-20T09:29:55;4.20;;;3.90;;
5811;SDS011;2932;52.400;9.558;2022-08-20T09:32:21;8.15;;;6.22;;
5811;SDS011;2932;52.400;9.558;2022-08-20T09:34:48;7.30;;;6.60;;
5811;SDS011;2932;52.400;9.558;2022-08-20T09:37:20;6.45;;;5.07;;
5811;SDS011;2932;52.400;9.558;2022-08-20T09:39:46;5.35;;;4.85;;
5811;SDS011;2932;52.400;9.558;2022-08-20T09:42:13;5.45;;;4.68;;
5811;SDS011;2932;52.400;9.558;2022-08-20T09:44:44;6.28;;;5.68;;
5811;SDS011;2932;52.400;9.558;2022-08-20T09:47:10;6.35;;;5.40;;
5811;SDS011;2932;52.400;9.558;2022-08-20T09:49:36;6.93;;;6.22;;
5811;SDS011;2932;52.400;9.558;2022-08-20T09:52:02;8.93;;;7.30;;
5811;SDS011;2932;52.400;9.558;2022-08-20T09:54:29;8.10;;;7.32;;
5811;SDS011;2932;52.400;9.558;2022-08-20T09:56:58;7.97;;;7.18;;
5811;SDS011;2932;52.400;9.558;2022-08-20T09:59:26;8.32;;;7.55;;
5811;SDS011;2932;52.400;9.558;2022-08-20T10:01:52;9.70;;;8.90;;
5811;SDS011;2932;52.400;9.558;2022-08-20T10:04:18;9.23;;;8.43;;
5811;SDS011;2932;52.400;9.558;2022-08-20T10:06:43;9.82;;;9.02;;
5811;SDS011;2932;52.400;9.558;2022-08-20T10:09:09;9.68;;;8.77;;
5811;SDS011;2932;52.400;9.558;2022-08-20T10:11:34;11.98;;;10.88;;
5811;SDS011;2932;52.400;9.558;2022-08-20T10:14:00;14.32;;;12.90;;
5811;SDS011;2932;52.400;9.558;2022-08-20T10:16:25;12.07;;;10.95;;
5811;SDS011;2932;52.400;9.558;2022-08-20T10:18:50;11.80;;;10.77;;
5811;SDS011;2932;52.400;9.558;2022-08-20T10:21:17;11.93;;;10.73;;
5811;SDS011;2932;52.400;9.558;2022-08-20T10:23:43;9.70;;;8.80;;
5811;SDS011;2932;52.400;9.558;2022-08-20T10:26:09;9.13;;;8.18;;
5811;SDS011;2932;52.400;9.558;2022-08-20T10:28:35;7.65;;;6.93;;
5811;SDS011;2932;52.400;9.558;2022-08-20T10:31:00;7.63;;;6.93;;
5811;SDS011;2932;52.400;9.558;2022-08-20T10:33:26;7.07;;;6.40;;
5811;SDS011;2932;52.400;9.558;2022-08-20T10:35:51;7.28;;;6.57;;
5811;SDS011;2932;52.400;9.558;2022-08-20T10:38:17;6.57;;;5.97;;
5811;SDS011;2932;52.400;9.558;2022-08-20T10:40:42;5.60;;;5.13;;
5811;SDS011;2932;52.400;9.558;2022-08-20T10:43:08;4.35;;;4.05;;
5811;SDS011;2932;52.400;9.558;2022-08-20T10:45:33;2.90;;;2.70;;
5811;SDS011;2932;52.400;9.558;2022-08-20T10:47:59;3.15;;;2.95;;
5811;SDS011;2932;52.400;9.558;2022-08-20T10:50:25;2.95;;;2.75;;
5811;SDS011;2932;52.400;9.558;2022-08-20T10:52:51;2.53;;;2.42;;
5811;SDS011;2932;52.400;9.558;2022-08-20T10:55:16;1.90;;;1.80;;
5811;SDS011;2932;52.400;9.558;2022-08-20T10:57:42;1.77;;;1.67;;
5811;SDS011;2932;52.400;9.558;2022-08-20T11:00:09;1.77;;;1.67;;
5811;SDS011;2932;52.400;9.558;2022-08-20T11:02:37;1.85;;;1.75;;
5811;SDS011;2932;52.400;9.558;2022-08-20T11:05:03;1.98;;;1.77;;
5811;SDS011;2932;52.400;9.558;2022-08-20T11:07:30;1.83;;;1.73;;
5811;SDS011;2932;52.400;9.558;2022-08-20T11:09:57;1.80;;;1.70;;
5811;SDS011;2932;52.400;9.558;2022-08-20T11:12:23;1.55;;;1.45;;
5811;SDS011;2932;52.400;9.558;2022-08-20T11:14:49;1.63;;;1.52;;
5811;SDS011;2932;52.400;9.558;2022-08-20T11:17:34;1.90;;;1.67;;
5811;SDS011;2932;52.400;9.558;2022-08-20T11:20:03;1.65;;;1.40;;
5811;SDS011;2932;52.400;9.558;2022-08-20T11:22:31;1.40;;;1.30;;
5811;SDS011;2932;52.400;9.558;2022-08-20T11:24:56;1.40;;;1.30;;
5811;SDS011;2932;52.400;9.558;2022-08-20T11:27:23;1.05;;;1.05;;
5811;SDS011;2932;52.400;9.558;2022-08-20T11:29:54;1.40;;;1.30;;
5811;SDS011;2932;52.400;9.558;2022-08-20T11:32:20;1.73;;;1.42;;
5811;SDS011;2932;52.400;9.558;2022-08-20T11:34:45;1.20;;;1.10;;
5811;SDS011;2932;52.400;9.558;2022-08-20T11:37:12;1.10;;;1.10;;
5811;SDS011;2932;52.400;9.558;2022-08-20T11:39:39;1.15;;;1.00;;
5811;SDS011;2932;52.400;9.558;2022-08-20T11:42:05;1.20;;;1.13;;
5811;SDS011;2932;52.400;9.558;2022-08-20T11:44:30;1.40;;;1.15;;
5811;SDS011;2932;52.400;9.558;2022-08-20T11:46:59;1.00;;;1.00;;
5811;SDS011;2932;52.400;9.558;2022-08-20T11:49:27;1.80;;;1.20;;
5811;SDS011;2932;52.400;9.558;2022-08-20T11:51:57;1.42;;;1.25;;
5811;SDS011;2932;52.400;9.558;2022-08-20T11:54:23;1.08;;;1.08;;
5811;SDS011;2932;52.400;9.558;2022-08-20T11:56:48;1.42;;;1.30;;
5811;SDS011;2932;52.400;9.558;2022-08-20T11:59:14;1.25;;;1.20;;
5811;SDS011;2932;52.400;9.558;2022-08-20T12:01:39;1.67;;;1.40;;
5811;SDS011;2932;52.400;9.558;2022-08-20T12:04:05;2.63;;;1.30;;
5811;SDS011;2932;52.400;9.558;2022-08-20T12:06:30;1.92;;;1.42;;
5811;SDS011;2932;52.400;9.558;2022-08-20T12:08:56;1.63;;;1.52;;
5811;SDS011;2932;52.400;9.558;2022-08-20T12:11:22;1.75;;;1.65;;
5811;SDS011;2932;52.400;9.558;2022-08-20T12:13:47;2.47;;;2.28;;
5811;SDS011;2932;52.400;9.558;2022-08-20T12:16:13;3.40;;;2.03;;
5811;SDS011;2932;52.400;9.558;2022-08-20T12:18:38;3.40;;;2.25;;
5811;SDS011;2932;52.400;9.558;2022-08-20T12:21:03;2.10;;;2.00;;
5811;SDS011;2932;52.400;9.558;2022-08-20T12:23:29;2.13;;;1.92;;
5811;SDS011;2932;52.400;9.558;2022-08-20T12:25:54;2.38;;;2.17;;
5811;SDS011;2932;52.400;9.558;2022-08-20T12:28:21;2.42;;;2.22;;
5811;SDS011;2932;52.400;9.558;2022-08-20T12:30:47;3.00;;;2.20;;
5811;SDS011;2932;52.400;9.558;2022-08-20T12:33:12;2.38;;;2.22;;
5811;SDS011;2932;52.400;9.558;2022-08-20T12:35:38;2.35;;;2.15;;
5811;SDS011;2932;52.400;9.558;2022-08-20T12:38:04;2.35;;;2.05;;
5811;SDS011;2932;52.400;9.558;2022-08-20T12:40:31;2.55;;;2.35;;
5811;SDS011;2932;52.400;9.558;2022-08-20T12:42:57;3.25;;;2.50;;
5811;SDS011;2932;52.400;9.558;2022-08-20T12:45:23;3.08;;;2.67;;
5811;SDS011;2932;52.400;9.558;2022-08-20T12:47:48;3.75;;;3.40;;
5811;SDS011;2932;52.400;9.558;2022-08-20T12:50:19;2.80;;;2.45;;
5811;SDS011;2932;52.400;9.558;2022-08-20T12:52:47;2.60;;;2.40;;
5811;SDS011;2932;52.400;9.558;2022-08-20T12:55:14;2.58;;;2.38;;
5811;SDS011;2932;52.400;9.558;2022-08-20T12:57:43;3.97;;;2.55;;
5811;SDS011;2932;52.400;9.558;2022-08-20T13:00:15;2.90;;;2.70;;
5811;SDS011;2932;52.400;9.558;2022-08-20T13:02:44;3.22;;;3.00;;
5811;SDS011;2932;52.400;9.558;2022-08-20T13:05:11;2.75;;;2.50;;
5811;SDS011;2932;52.400;9.558;2022-08-20T13:07:37;2.90;;;2.70;;
5811;SDS011;2932;52.400;9.558;2022-08-20T13:10:04;2.83;;;2.63;;
5811;SDS011;2932;52.400;9.558;2022-08-20T13:12:31;3.03;;;2.72;;
5811;SDS011;2932;52.400;9.558;2022-08-20T13:14:56;4.22;;;3.40;;
5811;SDS011;2932;52.400;9.558;2022-08-20T13:17:22;3.42;;;3.17;;
5811;SDS011;2932;52.400;9.558;2022-08-20T13:19:47;3.30;;;3.10;;
5811;SDS011;2932;52.400;9.558;2022-08-20T13:22:13;5.35;;;3.60;;
5811;SDS011;2932;52.400;9.558;2022-08-20T13:24:38;4.10;;;3.70;;
5811;SDS011;2932;52.400;9.558;2022-08-20T13:29:30;3.75;;;3.25;;
5811;SDS011;2932;52.400;9.558;2022-08-20T13:31:55;3.17;;;2.95;;
5811;SDS011;2932;52.400;9.558;2022-08-20T13:34:20;3.55;;;2.75;;
5811;SDS011;2932;52.400;9.558;2022-08-20T13:36:46;2.50;;;2.30;;
5811;SDS011;2932;52.400;9.558;2022-08-20T13:39:11;2.92;;;2.40;;
5811;SDS011;2932;52.400;9.558;2022-08-20T13:41:36;2.97;;;2.50;;
5811;SDS011;2932;52.400;9.558;2022-08-20T13:44:02;3.88;;;2.80;;
5811;SDS011;2932;52.400;9.558;2022-08-20T13:46:28;3.80;;;2.78;;
5811;SDS011;2932;52.400;9.558;2022-08-20T13:48:53;3.42;;;2.80;;
5811;SDS011;2932;52.400;9.558;2022-08-20T13:51:18;2.67;;;2.47;;
5811;SDS011;2932;52.400;9.558;2022-08-20T13:53:44;3.22;;;2.42;;
5811;SDS011;2932;52.400;9.558;2022-08-20T13:56:09;3.15;;;2.85;;
5811;SDS011;2932;52.400;9.558;2022-08-20T13:58:34;3.50;;;3.20;;
5811;SDS011;2932;52.400;9.558;2022-08-20T14:01:00;2.85;;;2.65;;
5811;SDS011;2932;52.400;9.558;2022-08-20T14:03:25;3.10;;;2.75;;
5811;SDS011;2932;52.400;9.558;2022-08-20T14:05:51;2.97;;;2.78;;
5811;SDS011;2932;52.400;9.558;2022-08-20T14:08:17;4.13;;;3.10;;
5811;SDS011;2932;52.400;9.558;2022-08-20T14:10:46;3.95;;;2.90;;
5811;SDS011;2932;52.400;9.558;2022-08-20T14:13:15;2.83;;;2.30;;
5811;SDS011;2932;52.400;9.558;2022-08-20T14:15:45;3.55;;;2.35;;
5811;SDS011;2932;52.400;9.558;2022-08-20T14:18:11;2.95;;;2.65;;
5811;SDS011;2932;52.400;9.558;2022-08-20T14:20:38;2.95;;;2.50;;
5811;SDS011;2932;52.400;9.558;2022-08-20T14:23:05;2.50;;;2.35;;
5811;SDS011;2932;52.400;9.558;2022-08-20T14:25:30;2.42;;;2.20;;
5811;SDS011;2932;52.400;9.558;2022-08-20T14:27:56;3.50;;;2.17;;
5811;SDS011;2932;52.400;9.558;2022-08-20T14:30:24;3.80;;;1.92;;
5811;SDS011;2932;52.400;9.558;2022-08-20T14:32:52;5.00;;;2.17;;
5811;SDS011;2932;52.400;9.558;2022-08-20T14:35:18;2.42;;;1.98;;
5811;SDS011;2932;52.400;9.558;2022-08-20T14:37:47;2.15;;;1.95;;
5811;SDS011;2932;52.400;9.558;2022-08-20T14:40:16;2.03;;;1.83;;
5811;SDS011;2932;52.400;9.558;2022-08-20T14:42:43;2.85;;;2.00;;
5811;SDS011;2932;52.400;9.558;2022-08-20T14:45:10;3.08;;;2.00;;
5811;SDS011;2932;52.400;9.558;2022-08-20T14:47:37;4.65;;;2.00;;
5811;SDS011;2932;52.400;9.558;2022-08-20T14:50:16;2.25;;;1.90;;
5811;SDS011;2932;52.400;9.558;2022-08-20T14:52:51;1.98;;;1.77;;
5811;SDS011;2932;52.400;9.558;2022-08-20T14:55:18;1.98;;;1.60;;
5811;SDS011;2932;52.400;9.558;2022-08-20T14:57:45;2.95;;;1.92;;
5811;SDS011;2932;52.400;9.558;2022-08-20T15:00:13;2.65;;;1.63;;
5811;SDS011;2932;52.400;9.558;2022-08-20T15:02:42;1.67;;;1.58;;
5811;SDS011;2932;52.400;9.558;2022-08-20T15:05:09;2.10;;;1.50;;
5811;SDS011;2932;52.400;9.558;2022-08-20T15:07:35;2.22;;;1.80;;
5811;SDS011;2932;52.400;9.558;2022-08-20T15:10:09;1.65;;;1.27;;
5811;SDS011;2932;52.400;9.558;2022-08-20T15:12:36;2.40;;;1.63;;
5811;SDS011;2932;52.400;9.558;2022-08-20T15:15:02;2.25;;;1.20;;
5811;SDS011;2932;52.400;9.558;2022-08-20T15:17:31;1.27;;;0.90;;
5811;SDS011;2932;52.400;9.558;2022-08-20T15:19:56;2.78;;;1.38;;
5811;SDS011;2932;52.400;9.558;2022-08-20T15:22:22;5.65;;;1.40;;